Time;durP1;ratioP1;P1;durP2;ratioP2;P2;SDS_P1;SDS_P2;PMS_P1;PMS_P2;Temp;Humidity;BMP_temperature;BMP_pressure;BME280_temperature;BME280_humidity;BME280_pressure;Samples;Min_cycle;Max_cycle;Signal;HPM_P1;HPM_P2
2022/09/02 00:00:45;;;;;;;2.87;0.73;;;;;;;14.34;58.30;101316.31;4989754;28;20208;-71
2022/09/02 00:03:12;;;;;;;1.33;0.53;;;;;;;14.32;58.28;101323.63;4992312;28;20196;-71
2022/09/02 00:05:41;;;;;;;1.47;0.70;;;;;;;14.30;58.70;101314.84;5034615;22;20239;-70
2022/09/02 00:08:08;;;;;;;2.67;0.70;;;;;;;14.28;58.84;101319.44;5042737;28;20221;-70
2022/09/02 00:10:37;;;;;;;4.87;0.90;;;;;;;14.26;58.39;101319.53;5041658;28;20795;-70
2022/09/02 00:13:05;;;;;;;2.43;0.73;;;;;;;14.25;58.93;101315.13;5045416;28;20212;-70
2022/09/02 00:15:32;;;;;;;1.80;0.60;;;;;;;14.24;59.00;101322.31;5036101;28;20230;-70
2022/09/02 00:17:59;;;;;;;1.70;0.50;;;;;;;14.20;58.97;101310.09;5036142;28;20285;-70
2022/09/02 00:20:27;;;;;;;2.77;0.70;;;;;;;14.20;59.27;101319.94;5031118;28;20574;-70
2022/09/02 00:22:55;;;;;;;2.10;0.93;;;;;;;14.18;58.91;101317.38;5030521;28;20207;-70
2022/09/02 00:25:21;;;;;;;1.83;0.60;;;;;;;14.15;59.31;101314.88;5035244;28;20242;-69
2022/09/02 00:27:48;;;;;;;1.07;0.80;;;;;;;14.13;59.47;101313.31;5033475;28;20771;-70
2022/09/02 00:30:15;;;;;;;2.37;0.70;;;;;;;14.12;59.18;101317.78;5027015;28;20686;-70
2022/09/02 00:32:42;;;;;;;1.57;1.07;;;;;;;14.10;59.27;101316.19;5028091;28;20198;-70
2022/09/02 00:35:10;;;;;;;3.33;1.00;;;;;;;14.07;59.82;101319.06;5032061;28;20227;-70
2022/09/02 00:37:36;;;;;;;1.70;0.70;;;;;;;14.04;59.87;101314.75;5029351;28;20205;-70
2022/09/02 00:40:06;;;;;;;2.00;0.80;;;;;;;14.03;59.53;101304.16;5033237;28;20202;-70
2022/09/02 00:42:34;;;;;;;3.30;0.90;;;;;;;13.99;59.89;101300.81;5026548;28;20296;-70
2022/09/02 00:45:02;;;;;;;2.00;0.73;;;;;;;13.97;59.91;101300.09;5022498;28;20223;-70
2022/09/02 00:47:29;;;;;;;1.73;0.80;;;;;;;13.94;59.90;101296.75;5027825;28;20217;-70
2022/09/02 00:49:57;;;;;;;2.67;0.60;;;;;;;13.92;60.26;101298.66;5030786;28;20210;-70
2022/09/02 00:52:28;;;;;;;1.93;0.80;;;;;;;13.88;60.37;101296.19;5027522;28;20210;-70
2022/09/02 00:54:59;;;;;;;1.13;0.80;;;;;;;13.83;60.15;101295.63;5031415;28;20728;-70
2022/09/02 00:57:31;;;;;;;1.83;0.70;;;;;;;13.76;60.22;101299.69;5033782;28;20209;-70
2022/09/02 01:00:03;;;;;;;1.33;0.80;;;;;;;13.68;60.26;101295.78;5033573;28;20289;-70
2022/09/02 01:02:30;;;;;;;1.20;1.10;;;;;;;13.58;60.29;101300.91;5028287;28;20218;-70
2022/09/02 01:04:58;;;;;;;1.33;0.70;;;;;;;13.48;60.68;101295.28;5027647;28;20237;-70
2022/09/02 01:07:26;;;;;;;1.40;0.87;;;;;;;13.41;60.76;101298.47;5032179;28;20209;-70
2022/09/02 01:09:55;;;;;;;2.23;0.93;;;;;;;13.32;61.08;101288.34;5023991;28;20201;-70
2022/09/02 01:12:21;;;;;;;1.03;0.90;;;;;;;13.25;60.82;101287.03;5029201;28;20248;-70
2022/09/02 01:14:49;;;;;;;2.00;0.73;;;;;;;13.15;61.23;101292.97;5032015;28;20249;-70
2022/09/02 01:17:19;;;;;;;2.50;0.90;;;;;;;13.07;61.57;101294.41;5031999;28;20276;-70
2022/09/02 01:19:48;;;;;;;0.80;0.73;;;;;;;13.02;61.67;101285.81;5026332;28;20577;-70
2022/09/02 01:22:19;;;;;;;3.67;0.80;;;;;;;12.98;61.83;101290.47;5033181;28;20865;-70
2022/09/02 01:24:46;;;;;;;2.90;0.83;;;;;;;12.94;62.56;101288.09;5032028;28;20573;-70
2022/09/02 01:27:15;;;;;;;1.47;0.90;;;;;;;12.93;62.70;101291.72;5030542;28;20213;-70
2022/09/02 01:29:42;;;;;;;2.10;0.80;;;;;;;12.89;62.84;101291.06;5031730;28;20233;-69
2022/09/02 01:32:09;;;;;;;2.07;0.90;;;;;;;12.85;62.71;101285.06;5029565;28;20599;-69
2022/09/02 01:34:35;;;;;;;1.83;0.77;;;;;;;12.82;62.99;101279.88;5028665;28;20233;-70
2022/09/02 01:37:02;;;;;;;1.97;0.90;;;;;;;12.81;63.37;101285.31;5027555;28;20202;-70
2022/09/02 01:39:30;;;;;;;2.80;0.93;;;;;;;12.78;63.43;101283.69;5028039;28;20610;-70
2022/09/02 01:41:56;;;;;;;0.83;0.70;;;;;;;12.77;63.91;101287.31;5027126;28;20213;-70
2022/09/02 01:44:23;;;;;;;1.90;0.93;;;;;;;12.77;63.71;101289.13;5029034;28;20225;-70
2022/09/02 01:46:50;;;;;;;2.97;1.17;;;;;;;12.69;63.62;101280.75;5027697;28;20210;-70
2022/09/02 01:49:16;;;;;;;0.80;0.80;;;;;;;12.59;63.59;101277.78;5028658;28;20435;-70
2022/09/02 01:51:43;;;;;;;3.97;0.90;;;;;;;12.50;64.33;101273.88;5027641;28;20203;-69
2022/09/02 01:54:09;;;;;;;2.47;1.03;;;;;;;12.44;65.07;101273.38;5023507;28;20293;-70
2022/09/02 01:56:38;;;;;;;2.00;0.90;;;;;;;12.39;65.11;101273.66;5029020;28;20209;-70
2022/09/02 01:59:06;;;;;;;3.23;0.90;;;;;;;12.35;65.78;101272.16;5029316;28;20599;-69
2022/09/02 02:01:33;;;;;;;0.70;0.70;;;;;;;12.36;66.17;101273.00;5028002;28;20565;-70
2022/09/02 02:04:00;;;;;;;1.77;0.80;;;;;;;12.36;66.23;101260.47;5028692;28;20202;-70
2022/09/02 02:06:27;;;;;;;1.37;0.97;;;;;;;12.36;66.34;101260.47;5027981;28;20212;-70
2022/09/02 02:08:54;;;;;;;1.37;0.90;;;;;;;12.38;66.42;101263.91;5029330;28;20230;-70
2022/09/02 02:11:21;;;;;;;2.07;0.90;;;;;;;12.39;66.75;101254.09;5028329;28;20452;-70
2022/09/02 02:13:50;;;;;;;1.83;1.00;;;;;;;12.41;66.64;101257.53;5030507;28;20209;-69
2022/09/02 02:16:16;;;;;;;2.90;0.90;;;;;;;12.41;66.90;101247.72;5036374;28;20218;-70
2022/09/02 02:18:43;;;;;;;1.47;1.00;;;;;;;12.41;66.71;101250.38;5035428;28;20194;-70
2022/09/02 02:21:10;;;;;;;1.77;1.50;;;;;;;12.41;66.83;101250.38;5039298;28;20289;-69
2022/09/02 02:23:37;;;;;;;2.27;1.20;;;;;;;12.40;67.08;101248.66;5039086;28;20212;-70
2022/09/02 02:26:03;;;;;;;3.77;1.10;;;;;;;12.39;67.29;101254.97;5036478;28;20607;-70
2022/09/02 02:28:30;;;;;;;2.07;1.00;;;;;;;12.36;67.40;101246.31;5040054;28;20240;-69
2022/09/02 02:30:58;;;;;;;1.73;1.10;;;;;;;12.32;67.74;101248.28;5032130;28;20212;-70
2022/09/02 02:33:25;;;;;;;1.70;0.93;;;;;;;12.29;67.86;101252.94;5041756;28;20220;-69
2022/09/02 02:35:52;;;;;;;2.07;0.97;;;;;;;12.27;68.17;101247.69;5034220;28;20230;-70
2022/09/02 02:38:18;;;;;;;1.53;1.10;;;;;;;12.25;68.08;101254.94;5035675;28;20232;-70
2022/09/02 02:40:45;;;;;;;2.67;1.30;;;;;;;12.23;68.30;101248.84;5034720;28;20636;-70
2022/09/02 02:43:11;;;;;;;2.53;1.23;;;;;;;12.20;68.62;101246.34;5037145;28;20202;-70
2022/09/02 02:45:38;;;;;;;3.30;1.43;;;;;;;12.17;68.58;101251.91;5035658;28;20232;-70
2022/09/02 02:48:06;;;;;;;2.17;1.00;;;;;;;12.13;68.49;101256.56;5031630;28;20237;-70
2022/09/02 02:50:33;;;;;;;1.73;1.20;;;;;;;12.06;68.57;101243.66;5029700;28;20660;-69
2022/09/02 02:53:01;;;;;;;2.10;1.40;;;;;;;12.00;68.59;101244.03;5025510;28;20211;-70
2022/09/02 02:55:28;;;;;;;1.97;1.10;;;;;;;11.96;68.99;101243.34;5031352;28;20325;-70
2022/09/02 02:57:54;;;;;;;2.70;1.20;;;;;;;11.93;69.24;101240.00;5034243;28;20222;-69
2022/09/02 03:00:25;;;;;;;1.20;1.10;;;;;;;11.91;69.57;101245.44;5034842;28;20201;-70
2022/09/02 03:02:55;;;;;;;2.37;1.23;;;;;;;11.89;69.71;101243.81;5035019;28;20466;-70
2022/09/02 03:05:24;;;;;;;3.63;1.43;;;;;;;11.87;69.67;101240.34;5034897;28;20243;-70
2022/09/02 03:07:51;;;;;;;2.43;1.40;;;;;;;11.86;70.01;101239.50;5036715;28;20622;-70
2022/09/02 03:10:18;;;;;;;4.07;1.20;;;;;;;11.83;69.97;101240.53;5037103;28;20218;-70
2022/09/02 03:12:46;;;;;;;4.93;1.50;;;;;;;11.80;70.05;101240.75;5035888;28;20687;-69
2022/09/02 03:15:15;;;;;;;3.47;1.30;;;;;;;11.77;70.19;101238.25;5033958;28;20226;-70
2022/09/02 03:17:42;;;;;;;2.87;1.20;;;;;;;11.75;70.55;101233.91;5033185;28;20259;-69
2022/09/02 03:20:10;;;;;;;2.90;1.20;;;;;;;11.73;70.70;101236.66;5035448;28;20208;-70
2022/09/02 03:22:37;;;;;;;1.97;1.20;;;;;;;11.70;71.15;101234.19;5035777;28;20203;-70
2022/09/02 03:25:05;;;;;;;2.13;1.20;;;;;;;11.71;70.95;101235.03;5043786;28;20371;-70
2022/09/02 03:27:33;;;;;;;3.53;1.30;;;;;;;11.71;70.99;101232.38;5031753;28;20217;-69
2022/09/02 03:29:59;;;;;;;3.03;1.40;;;;;;;11.71;71.22;101233.22;5031478;28;20703;-70
2022/09/02 03:32:27;;;;;;;1.70;1.30;;;;;;;11.73;71.14;101236.66;5034950;28;20195;-69
2022/09/02 03:34:54;;;;;;;3.27;1.60;;;;;;;11.74;71.10;101233.06;5033148;28;20301;-70
2022/09/02 03:37:20;;;;;;;3.67;1.80;;;;;;;11.75;71.28;101236.59;5032307;28;20255;-70
2022/09/02 03:39:48;;;;;;;1.90;1.40;;;;;;;11.75;71.13;101232.09;5033793;28;20231;-70
2022/09/02 03:42:15;;;;;;;4.30;1.40;;;;;;;11.76;71.38;101228.53;5031539;28;20200;-69
2022/09/02 03:44:41;;;;;;;2.97;1.60;;;;;;;11.76;71.25;101233.00;5030572;28;20615;-70
2022/09/02 03:47:08;;;;;;;1.50;1.20;;;;;;;11.76;71.26;101225.00;5033445;28;20215;-69
2022/09/02 03:49:35;;;;;;;3.43;1.50;;;;;;;11.76;71.35;101227.66;5026683;28;20274;-69
2022/09/02 03:52:02;;;;;;;1.10;1.00;;;;;;;11.75;71.50;101225.91;5030232;28;20671;-70
2022/09/02 03:54:28;;;;;;;1.67;1.40;;;;;;;11.74;71.35;101225.06;5034025;28;20224;-70
2022/09/02 03:56:56;;;;;;;2.70;1.20;;;;;;;11.75;71.52;101231.25;5034015;28;20218;-70
2022/09/02 03:59:23;;;;;;;2.07;1.20;;;;;;;11.73;71.30;101218.00;5030465;28;20209;-70
2022/09/02 04:01:50;;;;;;;2.10;1.47;;;;;;;11.71;71.38;101222.56;5032401;28;20204;-70
2022/09/02 04:04:19;;;;;;;2.57;1.50;;;;;;;11.70;71.56;101228.84;5031159;28;20248;-70
2022/09/02 04:06:45;;;;;;;2.87;1.20;;;;;;;11.69;71.46;101220.94;5033651;28;20231;-70
2022/09/02 04:09:12;;;;;;;1.97;1.13;;;;;;;11.66;71.60;101226.44;5030908;28;20235;-70
2022/09/02 04:11:41;;;;;;;2.27;1.20;;;;;;;11.63;71.82;101227.50;5028837;28;20212;-70
2022/09/02 04:14:10;;;;;;;1.30;1.20;;;;;;;11.62;71.82;101223.13;5029952;28;20208;-70
2022/09/02 04:16:36;;;;;;;1.83;1.40;;;;;;;11.60;71.81;101222.34;5028132;28;20241;-70
2022/09/02 04:19:04;;;;;;;3.07;1.20;;;;;;;11.59;71.97;101231.28;5028670;28;20206;-70
2022/09/02 04:21:33;;;;;;;2.97;1.53;;;;;;;11.57;72.10;101230.50;5032159;28;20215;-69
2022/09/02 04:24:00;;;;;;;1.90;1.40;;;;;;;11.57;72.36;101227.84;5032173;28;20222;-71
2022/09/02 04:26:27;;;;;;;1.60;1.47;;;;;;;11.57;72.41;101227.84;5029014;28;20209;-70
2022/09/02 04:28:53;;;;;;;3.70;1.20;;;;;;;11.54;72.20;101233.34;5029433;28;20597;-70
2022/09/02 04:31:24;;;;;;;2.27;1.30;;;;;;;11.51;72.02;101227.34;5029461;28;20277;-70
2022/09/02 04:33:51;;;;;;;1.57;1.40;;;;;;;11.47;72.08;101229.31;5030242;28;20663;-70
2022/09/02 04:36:19;;;;;;;2.73;1.70;;;;;;;11.44;71.84;101234.84;5029925;28;20231;-70
2022/09/02 04:38:46;;;;;;;2.17;1.33;;;;;;;11.38;71.85;101233.38;5030575;28;20211;-70
2022/09/02 04:41:15;;;;;;;3.03;1.40;;;;;;;11.35;71.66;101227.38;5028004;28;20217;-70
2022/09/02 04:43:42;;;;;;;3.10;1.40;;;;;;;11.30;71.51;101230.28;5028567;28;20665;-70
2022/09/02 04:46:11;;;;;;;3.73;1.50;;;;;;;11.25;71.56;101227.03;5028809;28;20224;-70
2022/09/02 04:48:39;;;;;;;4.63;1.53;;;;;;;11.21;71.46;101225.50;5030241;28;20216;-70
2022/09/02 04:51:09;;;;;;;3.33;1.50;;;;;;;11.19;71.65;101231.84;5033412;28;20213;-70
2022/09/02 04:53:36;;;;;;;1.80;1.13;;;;;;;11.17;71.68;101223.06;5020481;28;20207;-70
2022/09/02 04:56:04;;;;;;;1.20;1.10;;;;;;;11.13;71.79;101230.38;5023684;28;20223;-70
2022/09/02 04:58:31;;;;;;;2.30;1.40;;;;;;;11.08;71.57;101225.34;5025746;28;20685;-70
2022/09/02 05:00:57;;;;;;;2.80;1.50;;;;;;;11.06;71.58;101229.03;5022351;28;20206;-70
2022/09/02 05:03:25;;;;;;;2.00;1.43;;;;;;;11.02;71.75;101225.66;5025427;28;20216;-70
2022/09/02 05:06:00;;;;;;;3.13;2.00;;;;;;;11.01;72.10;101228.41;5020838;28;20249;-69
2022/09/02 05:08:27;;;;;;;3.33;2.20;;;;;;;10.98;72.03;101226.78;5025521;28;20731;-70
2022/09/02 05:10:54;;;;;;;2.90;1.70;;;;;;;10.96;72.45;101228.66;5026526;28;20227;-70
2022/09/02 05:13:21;;;;;;;3.40;1.87;;;;;;;10.97;72.69;101229.53;5023166;28;20938;-70
2022/09/02 05:15:48;;;;;;;2.27;1.47;;;;;;;10.98;72.87;101221.44;5024103;28;20216;-70
2022/09/02 05:18:14;;;;;;;2.80;1.40;;;;;;;10.98;73.32;101224.13;5024054;28;20784;-69
2022/09/02 05:20:42;;;;;;;3.20;1.70;;;;;;;11.00;73.65;101219.56;5025844;28;20213;-70
2022/09/02 05:23:11;;;;;;;2.20;1.47;;;;;;;11.02;73.82;101220.34;5026997;28;20360;-70
2022/09/02 05:25:38;;;;;;;2.20;1.30;;;;;;;11.02;73.57;101219.47;5026041;28;20265;-70
2022/09/02 05:28:07;;;;;;;4.27;2.43;;;;;;;11.00;73.94;101219.56;5026739;28;20758;-70
2022/09/02 05:30:34;;;;;;;2.43;1.67;;;;;;;11.01;74.31;101215.09;5027726;28;20445;-70
2022/09/02 05:33:00;;;;;;;1.93;1.40;;;;;;;11.04;74.46;101210.44;5027312;28;20741;-71
2022/09/02 05:35:28;;;;;;;2.30;1.60;;;;;;;11.09;74.99;101211.06;5028794;28;20233;-70
2022/09/02 05:37:55;;;;;;;3.70;1.70;;;;;;;11.17;75.42;101217.75;5028211;28;20757;-71
2022/09/02 05:40:23;;;;;;;2.50;1.90;;;;;;;11.27;75.66;101214.50;5027219;28;20214;-71
2022/09/02 05:42:49;;;;;;;5.97;1.93;;;;;;;11.36;76.03;101218.41;5030902;28;20210;-71
2022/09/02 05:45:16;;;;;;;2.93;1.90;;;;;;;11.46;76.39;101214.28;5029952;28;20688;-71
2022/09/02 05:47:43;;;;;;;3.27;1.80;;;;;;;11.57;76.57;101221.66;5029488;28;20214;-71
2022/09/02 05:50:10;;;;;;;3.83;2.13;;;;;;;11.67;76.67;101220.16;5029384;28;20230;-71
2022/09/02 05:52:36;;;;;;;3.27;1.70;;;;;;;11.78;76.52;101215.94;5028697;28;20208;-71
2022/09/02 05:55:04;;;;;;;3.17;1.77;;;;;;;11.88;76.67;101200.22;5027097;28;20769;-71
2022/09/02 05:57:32;;;;;;;2.77;2.20;;;;;;;11.98;76.63;101203.22;5030130;28;20212;-71
2022/09/02 05:59:58;;;;;;;3.60;2.03;;;;;;;12.10;76.63;101202.47;5028564;28;20209;-71
2022/09/02 06:02:26;;;;;;;3.00;2.20;;;;;;;12.21;76.47;101199.13;5028965;28;20221;-71
2022/09/02 06:04:55;;;;;;;3.53;1.93;;;;;;;12.31;76.75;101201.16;5042708;22;20233;-83
2022/09/02 06:07:25;;;;;;;3.03;1.77;;;;;;;12.41;76.60;101204.97;5044371;28;20677;-83
2022/09/02 06:09:52;;;;;;;4.60;2.17;;;;;;;12.53;76.31;101200.69;5045628;28;20744;-83
2022/09/02 06:12:20;;;;;;;2.97;2.00;;;;;;;12.64;76.08;101211.56;5046980;28;20575;-84
2022/09/02 06:14:48;;;;;;;2.63;1.97;;;;;;;12.76;76.24;101207.25;5042429;28;20213;-83
2022/09/02 06:17:14;;;;;;;2.33;2.10;;;;;;;12.87;76.20;101210.09;5047574;28;20225;-82
2022/09/02 06:19:41;;;;;;;2.43;1.90;;;;;;;12.97;76.30;101207.69;5042425;28;21430;-83
2022/09/02 06:22:10;;;;;;;4.13;2.33;;;;;;;13.09;76.24;101213.09;5048998;28;20257;-83
2022/09/02 06:27:28;;;;;;;2.47;1.60;;;;;;;13.33;75.88;101204.47;5074505;22;20230;-83
2022/09/02 06:29:56;;;;;;;3.03;1.53;;;;;;;13.45;75.58;101204.50;5022693;28;20207;-83
2022/09/02 06:32:28;;;;;;;2.93;1.90;;;;;;;13.57;75.17;101210.88;5036336;28;20199;-83
2022/09/02 06:34:55;;;;;;;4.37;1.53;;;;;;;13.69;74.57;101199.31;5029712;28;20206;-82
2022/09/02 06:37:24;;;;;;;1.93;1.33;;;;;;;13.83;73.88;101207.28;5037119;28;20241;-83
2022/09/02 06:39:51;;;;;;;1.80;1.30;;;;;;;13.95;73.12;101202.94;5032326;28;20229;-82
2022/09/02 06:42:17;;;;;;;1.50;1.30;;;;;;;14.08;72.74;101210.97;5034235;28;20201;-83
2022/09/02 06:44:44;;;;;;;2.70;1.77;;;;;;;14.17;72.09;101208.50;5032293;28;20575;-82
2022/09/02 06:47:19;;;;;;;2.70;1.23;;;;;;;14.29;71.61;101203.25;5031434;28;20229;-82
2022/09/02 06:49:46;;;;;;;1.80;1.70;;;;;;;14.42;71.45;101202.31;5028752;28;20663;-83
2022/09/02 06:52:13;;;;;;;3.63;1.60;;;;;;;14.53;70.61;101210.44;5030045;28;20206;-83
2022/09/02 06:54:40;;;;;;;2.97;1.50;;;;;;;14.65;70.36;101203.38;5030517;28;20206;-82
2022/09/02 06:57:06;;;;;;;1.77;1.57;;;;;;;14.78;70.31;101206.03;5031726;28;20313;-83
2022/09/02 06:59:33;;;;;;;2.27;1.53;;;;;;;14.92;69.55;101211.25;5030186;28;20670;-83
2022/09/02 07:01:59;;;;;;;2.30;1.30;;;;;;;15.03;68.45;101205.97;5028102;28;20211;-83
2022/09/02 07:07:12;;;;;;;1.90;1.43;;;;;;;15.27;67.74;101206.81;5028929;28;20733;-83
2022/09/02 07:09:39;;;;;;;1.80;1.50;;;;;;;15.38;67.30;101197.13;5031221;28;20577;-83
2022/09/02 07:12:07;;;;;;;2.60;1.50;;;;;;;15.50;67.37;101204.25;5032254;28;20208;-83
2022/09/02 07:14:37;;;;;;;2.53;1.60;;;;;;;15.64;66.67;101198.72;5032426;28;20207;-84
2022/09/02 07:17:04;;;;;;;1.97;1.37;;;;;;;15.76;66.19;101196.97;5027621;28;20226;-83
2022/09/02 07:19:32;;;;;;;2.00;1.40;;;;;;;15.87;65.67;101197.84;5022060;28;20580;-83
2022/09/02 07:21:59;;;;;;;2.23;1.50;;;;;;;15.98;65.27;101202.38;5033596;28;20200;-83
2022/09/02 07:24:25;;;;;;;2.87;1.63;;;;;;;16.08;64.35;101207.91;5030871;28;20204;-83
2022/09/02 07:26:52;;;;;;;1.60;1.50;;;;;;;16.17;64.08;101197.28;5034905;28;20235;-83
2022/09/02 07:29:19;;;;;;;1.90;1.20;;;;;;;16.25;63.25;101205.63;5033780;28;20210;-83
2022/09/02 07:31:48;;;;;;;1.27;1.17;;;;;;;16.38;63.33;101202.81;5037239;28;20205;-82
2022/09/02 07:34:14;;;;;;;3.73;1.80;;;;;;;16.51;63.38;101203.56;5027079;28;20212;-82
2022/09/02 07:36:44;;;;;;;4.70;1.30;;;;;;;16.64;63.10;101198.09;5027806;28;20617;-82
2022/09/02 07:39:11;;;;;;;1.70;1.10;;;;;;;16.77;62.63;101197.97;5024715;28;20205;-82
2022/09/02 07:41:39;;;;;;;3.87;1.60;;;;;;;16.87;62.33;101197.09;5034642;28;20233;-83
2022/09/02 07:44:06;;;;;;;2.80;1.43;;;;;;;17.00;62.02;101188.91;5029342;28;20202;-83
2022/09/02 07:46:34;;;;;;;2.03;1.30;;;;;;;17.13;61.72;101197.66;5028862;28;20248;-83
2022/09/02 07:49:03;;;;;;;1.60;1.10;;;;;;;17.28;61.40;101198.22;5033671;28;20305;-82
2022/09/02 07:51:32;;;;;;;2.57;1.10;;;;;;;17.43;61.23;101194.25;5034917;28;20215;-83
2022/09/02 07:54:00;;;;;;;3.47;1.30;;;;;;;17.59;60.86;101193.84;5026564;28;20208;-83
2022/09/02 07:56:26;;;;;;;2.70;1.47;;;;;;;17.74;60.15;101187.19;5029487;28;20222;-83
2022/09/02 07:58:53;;;;;;;3.20;1.13;;;;;;;17.87;59.87;101190.56;5021400;28;20200;-83
2022/09/02 08:01:21;;;;;;;1.10;1.00;;;;;;;18.04;59.88;101189.97;5034934;28;20587;-83
2022/09/02 08:03:48;;;;;;;2.03;1.10;;;;;;;18.20;58.80;101183.25;5029856;28;20219;-83
2022/09/02 08:06:15;;;;;;;1.77;1.10;;;;;;;18.36;57.67;101183.63;5030402;28;20621;-83
2022/09/02 08:08:42;;;;;;;1.60;1.30;;;;;;;18.48;57.62;101182.53;5034833;28;20205;-83
2022/09/02 08:11:11;;;;;;;1.83;1.30;;;;;;;18.64;57.63;101176.66;5033779;28;20206;-83
2022/09/02 08:13:39;;;;;;;1.80;1.10;;;;;;;18.76;56.66;101183.69;5026793;28;20251;-83
2022/09/02 08:16:06;;;;;;;3.90;1.23;;;;;;;18.87;55.73;101182.72;5024545;28;20228;-83
2022/09/02 08:18:33;;;;;;;2.63;1.13;;;;;;;18.97;54.96;101181.75;5028015;28;20283;-83
2022/09/02 08:21:00;;;;;;;2.63;1.20;;;;;;;19.10;55.29;101186.03;5027819;28;20659;-83
2022/09/02 08:23:27;;;;;;;2.43;0.90;;;;;;;19.24;54.77;101180.22;5031166;28;20217;-83
2022/09/02 08:25:53;;;;;;;1.33;1.10;;;;;;;19.37;54.08;101178.97;5033158;28;20228;-83
2022/09/02 08:28:21;;;;;;;1.53;0.93;;;;;;;19.47;53.55;101181.69;5033075;28;20213;-82
2022/09/02 08:30:48;;;;;;;1.43;0.83;;;;;;;19.58;53.30;101173.47;5025848;28;20202;-83
2022/09/02 08:33:14;;;;;;;2.83;1.07;;;;;;;19.69;52.98;101180.59;5025840;28;20207;-83
2022/09/02 08:35:41;;;;;;;1.50;0.90;;;;;;;19.82;52.50;101174.88;5025540;28;20223;-83
2022/09/02 08:38:07;;;;;;;1.00;0.90;;;;;;;19.97;52.46;101174.28;5034144;28;20219;-83
2022/09/02 08:40:36;;;;;;;1.47;1.00;;;;;;;20.11;51.64;101167.56;5033988;28;20228;-83
2022/09/02 08:43:09;;;;;;;1.57;0.93;;;;;;;20.22;51.24;101158.44;5028684;28;20777;-83
2022/09/02 08:45:38;;;;;;;1.30;1.00;;;;;;;20.33;50.36;101161.81;5026113;28;20226;-84
2022/09/02 08:48:11;;;;;;;1.75;1.00;;;;;;;20.42;50.01;101162.81;5030234;28;20212;-83
2022/09/02 08:50:41;;;;;;;3.07;1.20;;;;;;;20.48;49.46;101158.66;5032142;28;20225;-83
2022/09/02 08:53:17;;;;;;;2.23;1.13;;;;;;;20.56;49.30;101161.47;5042510;28;20648;-83
2022/09/02 08:55:46;;;;;;;1.53;0.80;;;;;;;20.65;48.92;101158.72;5036372;28;20788;-83
2022/09/02 08:58:17;;;;;;;1.20;0.90;;;;;;;20.76;49.03;101160.38;5037595;28;20210;-84
2022/09/02 09:00:52;;;;;;;1.70;0.98;;;;;;;20.87;48.42;101151.19;5030545;28;20229;-84
2022/09/02 09:03:26;;;;;;;0.70;0.70;;;;;;;20.95;47.76;101149.44;5029177;28;20202;-83
2022/09/02 09:06:03;;;;;;;2.53;0.95;;;;;;;21.03;47.49;101149.53;5031693;28;20682;-84
2022/09/02 09:08:37;;;;;;;2.40;0.80;;;;;;;21.16;46.99;101135.59;5035737;28;20204;-83
2022/09/02 09:11:09;;;;;;;1.25;0.73;;;;;;;21.24;46.16;101133.03;5035363;28;20206;-84
2022/09/02 09:13:59;;;;;;;4.25;0.88;;;;;;;21.33;46.61;101131.22;5034912;28;20715;-83
2022/09/02 09:16:38;;;;;;;0.93;0.82;;;;;;;21.43;46.18;101132.00;5027009;28;20229;-83
2022/09/02 09:19:11;;;;;;;3.22;0.90;;;;;;;21.50;45.11;101135.78;5029221;28;20207;-83
2022/09/02 09:21:39;;;;;;;2.53;0.70;;;;;;;21.50;44.72;101127.66;5026546;28;20225;-83
2022/09/02 09:24:10;;;;;;;2.72;0.80;;;;;;;21.51;44.72;101126.66;5025555;28;20976;-83
2022/09/02 09:26:39;;;;;;;2.08;0.80;;;;;;;21.58;44.89;101124.16;5038671;28;20320;-83
2022/09/02 09:29:05;;;;;;;1.10;0.80;;;;;;;21.68;45.22;101114.94;5030266;28;20656;-83
2022/09/02 09:31:37;;;;;;;2.83;1.20;;;;;;;21.78;44.78;101104.00;5029974;28;20203;-84
2022/09/02 09:34:06;;;;;;;2.72;0.95;;;;;;;21.91;44.75;101103.56;5029323;28;20203;-84
2022/09/02 09:36:48;;;;;;;1.83;0.80;;;;;;;22.03;44.06;101103.19;5036654;28;20228;-83
2022/09/02 09:39:20;;;;;;;2.83;0.80;;;;;;;22.13;43.33;101092.22;5025377;28;20194;-83
2022/09/02 09:41:48;;;;;;;3.22;1.05;;;;;;;22.20;43.29;101097.88;5033887;28;20225;-83
2022/09/02 09:44:37;;;;;;;1.05;0.77;;;;;;;22.31;42.97;101100.28;5027725;28;20198;-83
2022/09/02 09:47:08;;;;;;;3.63;0.70;;;;;;;22.38;42.26;101096.78;5033333;28;20270;-84
2022/09/02 09:49:35;;;;;;;2.00;0.82;;;;;;;22.43;41.81;101093.53;5032297;28;20664;-84
2022/09/02 09:52:02;;;;;;;1.15;0.70;;;;;;;22.46;40.99;101088.66;5037663;28;20205;-83
2022/09/02 09:54:28;;;;;;;2.65;0.75;;;;;;;22.49;40.74;101093.75;5037871;28;20212;-83
2022/09/02 09:56:57;;;;;;;0.82;0.68;;;;;;;22.53;40.05;101088.84;5035925;28;20231;-83
2022/09/02 09:59:40;;;;;;;2.78;1.02;;;;;;;22.58;40.71;101077.47;5042547;28;20205;-83
2022/09/02 10:02:18;;;;;;;2.70;0.70;;;;;;;22.63;40.30;101084.13;5039508;28;20948;-83
2022/09/02 10:04:45;;;;;;;3.83;1.00;;;;;;;22.64;39.83;101083.13;5041741;28;20201;-84
2022/09/02 10:07:13;;;;;;;1.90;0.80;;;;;;;22.68;39.86;101076.34;5037985;28;20293;-84
2022/09/02 10:09:39;;;;;;;3.53;0.80;;;;;;;22.67;39.50;101082.78;5030251;28;20208;-83
2022/09/02 10:12:07;;;;;;;2.17;0.85;;;;;;;22.69;39.83;101071.75;5039176;28;20198;-83
2022/09/02 10:14:37;;;;;;;1.35;0.80;;;;;;;22.77;39.61;101069.09;5031197;28;20208;-83
2022/09/02 10:17:19;;;;;;;1.00;0.70;;;;;;;22.90;40.36;101074.06;5030332;28;20242;-83
2022/09/02 10:19:54;;;;;;;1.75;1.20;;;;;;;23.06;39.89;101074.09;5038129;28;20217;-83
2022/09/02 10:22:40;;;;;;;1.10;0.77;;;;;;;23.21;39.46;101058.81;5035364;28;20214;-83
2022/09/02 10:25:21;;;;;;;2.85;1.13;;;;;;;23.32;39.43;101069.34;5038682;28;20672;-84
2022/09/02 10:27:59;;;;;;;1.35;0.80;;;;;;;23.42;39.21;101061.03;5031538;28;20225;-83
2022/09/02 10:30:30;;;;;;;2.28;0.70;;;;;;;23.45;38.28;101056.09;5034066;28;20241;-84
2022/09/02 10:33:22;;;;;;;2.50;0.98;;;;;;;23.49;38.14;101071.03;5031584;28;20197;-83
2022/09/02 10:35:54;;;;;;;9.13;1.00;;;;;;;23.51;37.24;101057.25;5026921;28;20257;-84
2022/09/02 10:38:36;;;;;;;1.90;0.90;;;;;;;23.53;37.23;101042.53;5032961;28;20198;-83
2022/09/02 10:41:20;;;;;;;1.65;0.80;;;;;;;23.57;37.02;101040.31;5030931;28;20214;-84
2022/09/02 10:44:03;;;;;;;4.47;1.00;;;;;;;23.63;37.10;101039.63;5038440;28;20215;-83
2022/09/02 10:46:38;;;;;;;0.82;0.75;;;;;;;23.66;36.79;101044.69;5044724;28;20223;-85
2022/09/02 10:49:15;;;;;;;0.70;0.63;;;;;;;23.61;36.26;101033.50;5043378;28;20202;-83
2022/09/02 10:51:50;;;;;;;2.55;0.63;;;;;;;23.62;36.32;101035.22;5043082;28;20239;-84
2022/09/02 10:54:33;;;;;;;0.90;0.80;;;;;;;23.61;36.40;101038.94;5037840;28;20216;-84
2022/09/02 10:57:04;;;;;;;1.05;0.60;;;;;;;23.66;35.86;101032.97;5031356;28;20746;-84
2022/09/02 10:59:37;;;;;;;1.42;0.70;;;;;;;23.71;35.58;101036.03;5037561;28;20194;-84
2022/09/02 11:02:13;;;;;;;1.13;0.50;;;;;;;23.77;35.74;101032.63;5030836;28;20221;-83
2022/09/02 11:04:47;;;;;;;1.27;0.80;;;;;;;23.85;35.28;101029.88;5034320;28;20208;-83
2022/09/02 11:07:19;;;;;;;2.33;0.60;;;;;;;23.89;34.81;101021.19;5026077;28;20229;-83
2022/09/02 11:09:50;;;;;;;1.00;0.70;;;;;;;24.00;34.64;101016.44;5039719;28;20206;-84
2022/09/02 11:12:21;;;;;;;1.23;0.95;;;;;;;24.10;34.52;101009.75;5028306;28;20199;-85
2022/09/02 11:14:59;;;;;;;1.08;0.70;;;;;;;24.09;34.47;101013.47;5032837;28;20224;-84
2022/09/02 11:17:45;;;;;;;2.55;0.70;;;;;;;24.08;34.61;100997.31;5037311;28;20222;-84
2022/09/02 11:20:26;;;;;;;1.13;0.52;;;;;;;24.11;34.80;101005.16;5027887;28;20206;-83
2022/09/02 11:22:59;;;;;;;2.22;0.82;;;;;;;24.14;34.43;100994.75;5032886;28;20239;-82
2022/09/02 11:25:32;;;;;;;1.90;0.80;;;;;;;24.18;33.96;101001.53;5020270;28;20232;-83
2022/09/02 11:28:11;;;;;;;2.22;0.60;;;;;;;24.20;34.10;100991.31;5022453;28;20708;-82
2022/09/02 11:30:45;;;;;;;2.30;0.80;;;;;;;24.27;33.91;100994.22;5031151;28;20205;-82
2022/09/02 11:33:18;;;;;;;2.03;0.70;;;;;;;24.29;33.97;100992.16;5025476;28;20203;-83
2022/09/02 11:35:46;;;;;;;2.55;0.70;;;;;;;24.35;33.53;100993.34;5027899;28;20529;-83
2022/09/02 11:38:29;;;;;;;1.65;0.88;;;;;;;24.40;34.03;100988.19;5031760;28;20581;-82